sensor_id;sensor_type;location;lat;lon;timestamp;temperature;humidity
20732;DHT22;10527;52.124;5.196;2023-03-31T00:00:53;11.40;99.90
20732;DHT22;10527;52.124;5.196;2023-03-31T00:03:23;11.40;99.90
20732;DHT22;10527;52.124;5.196;2023-03-31T00:05:55;11.40;99.90
20732;DHT22;10527;52.124;5.196;2023-03-31T00:08:28;11.40;99.90
20732;DHT22;10527;52.124;5.196;2023-03-31T00:11:03;11.50;99.90
20732;DHT22;10527;52.124;5.196;2023-03-31T00:13:33;11.50;99.90
20732;DHT22;10527;52.124;5.196;2023-03-31T00:16:06;11.50;99.90
20732;DHT22;10527;52.124;5.196;2023-03-31T00:18:36;11.40;99.90
20732;DHT22;10527;52.124;5.196;2023-03-31T00:23:34;11.30;99.90
20732;DHT22;10527;52.124;5.196;2023-03-31T00:26:01;11.30;99.90
20732;DHT22;10527;52.124;5.196;2023-03-31T00:28:28;11.30;99.90
20732;DHT22;10527;52.124;5.196;2023-03-31T00:30:59;11.40;99.90
20732;DHT22;10527;52.124;5.196;2023-03-31T00:33:27;11.40;99.90
20732;DHT22;10527;52.124;5.196;2023-03-31T00:35:55;11.40;99.90
20732;DHT22;10527;52.124;5.196;2023-03-31T00:38:22;11.50;99.90
20732;DHT22;10527;52.124;5.196;2023-03-31T00:40:49;11.50;99.90
20732;DHT22;10527;52.124;5.196;2023-03-31T00:43:32;11.50;99.90
20732;DHT22;10527;52.124;5.196;2023-03-31T00:48:50;11.40;99.90
20732;DHT22;10527;52.124;5.196;2023-03-31T00:51:25;11.40;99.90
20732;DHT22;10527;52.124;5.196;2023-03-31T00:53:58;11.40;99.90
20732;DHT22;10527;52.124;5.196;2023-03-31T00:56:37;11.50;99.90
20732;DHT22;10527;52.124;5.196;2023-03-31T00:59:10;11.60;99.90
20732;DHT22;10527;52.124;5.196;2023-03-31T01:01:40;11.50;99.90
20732;DHT22;10527;52.124;5.196;2023-03-31T01:04:19;11.50;99.90
20732;DHT22;10527;52.124;5.196;2023-03-31T01:07:03;11.60;99.90
20732;DHT22;10527;52.124;5.196;2023-03-31T01:09:34;11.50;99.90
20732;DHT22;10527;52.124;5.196;2023-03-31T01:12:06;11.60;99.90
20732;DHT22;10527;52.124;5.196;2023-03-31T01:14:36;11.60;99.90
20732;DHT22;10527;52.124;5.196;2023-03-31T01:17:03;11.60;99.90
20732;DHT22;10527;52.124;5.196;2023-03-31T01:41:57;11.50;99.90
20732;DHT22;10527;52.124;5.196;2023-03-31T01:44:44;11.60;99.90
20732;DHT22;10527;52.124;5.196;2023-03-31T01:47:30;11.70;99.90
20732;DHT22;10527;52.124;5.196;2023-03-31T01:50:14;11.60;99.90
20732;DHT22;10527;52.124;5.196;2023-03-31T01:55:40;11.60;99.90
20732;DHT22;10527;52.124;5.196;2023-03-31T01:58:20;11.60;99.90
20732;DHT22;10527;52.124;5.196;2023-03-31T02:01:02;11.50;99.90
20732;DHT22;10527;52.124;5.196;2023-03-31T02:03:39;11.50;99.90
20732;DHT22;10527;52.124;5.196;2023-03-31T02:06:34;11.60;99.90
20732;DHT22;10527;52.124;5.196;2023-03-31T02:09:13;11.60;99.90
20732;DHT22;10527;52.124;5.196;2023-03-31T02:11:43;11.60;99.90
20732;DHT22;10527;52.124;5.196;2023-03-31T02:14:15;11.60;99.90
20732;DHT22;10527;52.124;5.196;2023-03-31T02:16:50;11.60;99.90
20732;DHT22;10527;52.124;5.196;2023-03-31T02:19:27;11.60;99.90
20732;DHT22;10527;52.124;5.196;2023-03-31T02:21:58;11.60;99.90
20732;DHT22;10527;52.124;5.196;2023-03-31T02:24:25;11.60;99.90
20732;DHT22;10527;52.124;5.196;2023-03-31T02:27:08;11.60;99.90
20732;DHT22;10527;52.124;5.196;2023-03-31T02:29:56;11.60;99.90
20732;DHT22;10527;52.124;5.196;2023-03-31T02:32:36;11.60;99.90
20732;DHT22;10527;52.124;5.196;2023-03-31T02:35:09;11.50;99.90
20732;DHT22;10527;52.124;5.196;2023-03-31T02:37:45;11.60;99.90
20732;DHT22;10527;52.124;5.196;2023-03-31T02:40:18;11.50;99.90
20732;DHT22;10527;52.124;5.196;2023-03-31T02:42:50;11.40;99.90
20732;DHT22;10527;52.124;5.196;2023-03-31T02:48:26;11.40;99.90
20732;DHT22;10527;52.124;5.196;2023-03-31T02:54:19;11.40;99.90
20732;DHT22;10527;52.124;5.196;2023-03-31T03:06:23;11.50;99.90
20732;DHT22;10527;52.124;5.196;2023-03-31T03:09:29;11.40;99.90
20732;DHT22;10527;52.124;5.196;2023-03-31T03:15:16;11.40;99.90
20732;DHT22;10527;52.124;5.196;2023-03-31T03:18:06;11.40;99.90
20732;DHT22;10527;52.124;5.196;2023-03-31T03:20:33;11.40;99.90
20732;DHT22;10527;52.124;5.196;2023-03-31T03:23:01;11.40;99.90
20732;DHT22;10527;52.124;5.196;2023-03-31T03:25:28;11.30;99.90
20732;DHT22;10527;52.124;5.196;2023-03-31T03:27:55;11.30;99.90
20732;DHT22;10527;52.124;5.196;2023-03-31T03:30:22;11.40;99.90
20732;DHT22;10527;52.124;5.196;2023-03-31T03:32:49;11.30;99.90
20732;DHT22;10527;52.124;5.196;2023-03-31T03:35:16;11.30;99.90
20732;DHT22;10527;52.124;5.196;2023-03-31T03:37:43;11.40;99.90
20732;DHT22;10527;52.124;5.196;2023-03-31T03:40:10;11.30;99.90
20732;DHT22;10527;52.124;5.196;2023-03-31T03:42:37;11.30;99.90
20732;DHT22;10527;52.124;5.196;2023-03-31T03:45:06;11.40;99.90
20732;DHT22;10527;52.124;5.196;2023-03-31T03:47:33;11.40;99.90
20732;DHT22;10527;52.124;5.196;2023-03-31T03:50:02;11.30;99.90
20732;DHT22;10527;52.124;5.196;2023-03-31T03:52:30;11.40;99.90
20732;DHT22;10527;52.124;5.196;2023-03-31T03:54:56;11.30;99.90
20732;DHT22;10527;52.124;5.196;2023-03-31T03:57:23;11.40;99.90
20732;DHT22;10527;52.124;5.196;2023-03-31T03:59:50;11.40;99.90
20732;DHT22;10527;52.124;5.196;2023-03-31T04:02:17;11.30;99.90
20732;DHT22;10527;52.124;5.196;2023-03-31T04:04:44;11.30;99.90
20732;DHT22;10527;52.124;5.196;2023-03-31T04:07:14;11.20;99.90
20732;DHT22;10527;52.124;5.196;2023-03-31T04:09:41;11.20;99.90
20732;DHT22;10527;52.124;5.196;2023-03-31T04:12:10;11.20;99.90
20732;DHT22;10527;52.124;5.196;2023-03-31T04:14:36;11.20;99.90
20732;DHT22;10527;52.124;5.196;2023-03-31T04:17:03;11.20;99.90
20732;DHT22;10527;52.124;5.196;2023-03-31T04:19:30;11.10;99.90
20732;DHT22;10527;52.124;5.196;2023-03-31T04:21:57;11.20;99.90
20732;DHT22;10527;52.124;5.196;2023-03-31T04:24:28;11.20;99.90
20732;DHT22;10527;52.124;5.196;2023-03-31T04:27:01;11.20;99.90
20732;DHT22;10527;52.124;5.196;2023-03-31T04:29:32;11.20;99.90
20732;DHT22;10527;52.124;5.196;2023-03-31T04:31:59;11.20;99.90
20732;DHT22;10527;52.124;5.196;2023-03-31T04:34:27;11.20;99.90
20732;DHT22;10527;52.124;5.196;2023-03-31T04:37:01;11.20;99.90
20732;DHT22;10527;52.124;5.196;2023-03-31T04:39:29;11.20;99.90
20732;DHT22;10527;52.124;5.196;2023-03-31T04:41:57;11.20;99.90
20732;DHT22;10527;52.124;5.196;2023-03-31T04:44:26;11.20;99.90
20732;DHT22;10527;52.124;5.196;2023-03-31T04:46:54;11.20;99.90
20732;DHT22;10527;52.124;5.196;2023-03-31T04:49:21;11.20;99.90
20732;DHT22;10527;52.124;5.196;2023-03-31T04:51:48;11.10;99.90
20732;DHT22;10527;52.124;5.196;2023-03-31T04:54:16;11.10;99.90
20732;DHT22;10527;52.124;5.196;2023-03-31T04:56:42;11.20;99.90
20732;DHT22;10527;52.124;5.196;2023-03-31T04:59:09;11.10;99.90
20732;DHT22;10527;52.124;5.196;2023-03-31T05:01:36;11.10;99.90
20732;DHT22;10527;52.124;5.196;2023-03-31T05:04:04;11.10;99.90
20732;DHT22;10527;52.124;5.196;2023-03-31T05:06:32;11.10;99.90
20732;DHT22;10527;52.124;5.196;2023-03-31T05:08:59;11.10;99.90
20732;DHT22;10527;52.124;5.196;2023-03-31T05:11:26;11.10;99.90
20732;DHT22;10527;52.124;5.196;2023-03-31T05:13:53;11.10;99.90
20732;DHT22;10527;52.124;5.196;2023-03-31T05:16:27;11.20;99.90
20732;DHT22;10527;52.124;5.196;2023-03-31T05:18:54;11.10;99.90
20732;DHT22;10527;52.124;5.196;2023-03-31T05:21:21;11.10;99.90
20732;DHT22;10527;52.124;5.196;2023-03-31T05:23:49;11.00;99.90
20732;DHT22;10527;52.124;5.196;2023-03-31T05:26:16;11.10;99.90
20732;DHT22;10527;52.124;5.196;2023-03-31T05:28:43;11.10;99.90
20732;DHT22;10527;52.124;5.196;2023-03-31T05:31:10;11.00;99.90
20732;DHT22;10527;52.124;5.196;2023-03-31T05:33:39;11.00;99.90
20732;DHT22;10527;52.124;5.196;2023-03-31T05:36:12;11.10;99.90
20732;DHT22;10527;52.124;5.196;2023-03-31T05:38:41;11.00;99.90
20732;DHT22;10527;52.124;5.196;2023-03-31T05:41:10;11.10;99.90
20732;DHT22;10527;52.124;5.196;2023-03-31T05:43:37;11.10;99.90
20732;DHT22;10527;52.124;5.196;2023-03-31T05:46:06;11.10;99.90
20732;DHT22;10527;52.124;5.196;2023-03-31T05:48:34;11.10;99.90
20732;DHT22;10527;52.124;5.196;2023-03-31T05:51:02;11.10;99.90
20732;DHT22;10527;52.124;5.196;2023-03-31T05:53:30;11.10;99.90
20732;DHT22;10527;52.124;5.196;2023-03-31T05:55:58;11.10;99.90
20732;DHT22;10527;52.124;5.196;2023-03-31T05:58:27;11.10;99.90
20732;DHT22;10527;52.124;5.196;2023-03-31T06:01:08;11.10;99.90
20732;DHT22;10527;52.124;5.196;2023-03-31T06:03:39;11.10;99.90
20732;DHT22;10527;52.124;5.196;2023-03-31T06:06:08;11.10;99.90
20732;DHT22;10527;52.124;5.196;2023-03-31T06:08:41;11.00;99.90
20732;DHT22;10527;52.124;5.196;2023-03-31T06:11:12;11.10;99.90
20732;DHT22;10527;52.124;5.196;2023-03-31T06:13:41;11.00;99.90
20732;DHT22;10527;52.124;5.196;2023-03-31T06:16:10;11.00;99.90
20732;DHT22;10527;52.124;5.196;2023-03-31T06:18:39;11.00;99.90
20732;DHT22;10527;52.124;5.196;2023-03-31T06:21:06;11.00;99.90
20732;DHT22;10527;52.124;5.196;2023-03-31T06:23:36;11.10;99.90
20732;DHT22;10527;52.124;5.196;2023-03-31T06:26:05;11.10;99.90
20732;DHT22;10527;52.124;5.196;2023-03-31T06:28:35;11.10;99.90
20732;DHT22;10527;52.124;5.196;2023-03-31T06:31:07;11.10;99.90
20732;DHT22;10527;52.124;5.196;2023-03-31T06:33:38;11.00;99.90
20732;DHT22;10527;52.124;5.196;2023-03-31T06:36:08;11.10;99.90
20732;DHT22;10527;52.124;5.196;2023-03-31T06:38:36;11.10;99.90
20732;DHT22;10527;52.124;5.196;2023-03-31T06:41:08;11.10;99.90
20732;DHT22;10527;52.124;5.196;2023-03-31T06:43:37;11.10;99.90
20732;DHT22;10527;52.124;5.196;2023-03-31T06:46:05;11.10;99.90
20732;DHT22;10527;52.124;5.196;2023-03-31T06:48:32;11.10;99.90
20732;DHT22;10527;52.124;5.196;2023-03-31T06:51:01;11.10;99.90
20732;DHT22;10527;52.124;5.196;2023-03-31T06:53:30;11.10;99.90
20732;DHT22;10527;52.124;5.196;2023-03-31T06:55:57;11.00;99.90
20732;DHT22;10527;52.124;5.196;2023-03-31T06:58:24;11.00;99.90
20732;DHT22;10527;52.124;5.196;2023-03-31T07:00:54;11.00;99.90
20732;DHT22;10527;52.124;5.196;2023-03-31T07:03:21;11.00;99.90
20732;DHT22;10527;52.124;5.196;2023-03-31T07:05:51;11.10;99.90
20732;DHT22;10527;52.124;5.196;2023-03-31T07:08:20;11.00;99.90
20732;DHT22;10527;52.124;5.196;2023-03-31T07:10:52;11.00;99.90
20732;DHT22;10527;52.124;5.196;2023-03-31T07:13:24;11.10;99.90
20732;DHT22;10527;52.124;5.196;2023-03-31T07:15:54;11.00;99.90
20732;DHT22;10527;52.124;5.196;2023-03-31T07:18:22;11.10;99.90
20732;DHT22;10527;52.124;5.196;2023-03-31T07:21:09;11.10;99.90
20732;DHT22;10527;52.124;5.196;2023-03-31T07:23:37;11.10;99.90
20732;DHT22;10527;52.124;5.196;2023-03-31T07:26:03;11.10;99.90
20732;DHT22;10527;52.124;5.196;2023-03-31T07:28:31;11.10;99.90
20732;DHT22;10527;52.124;5.196;2023-03-31T07:30:58;11.10;99.90
20732;DHT22;10527;52.124;5.196;2023-03-31T07:33:25;11.10;99.90
20732;DHT22;10527;52.124;5.196;2023-03-31T07:35:52;11.10;99.90
20732;DHT22;10527;52.124;5.196;2023-03-31T07:38:36;11.20;99.90
20732;DHT22;10527;52.124;5.196;2023-03-31T07:41:03;11.20;99.90
20732;DHT22;10527;52.124;5.196;2023-03-31T07:43:35;11.20;99.90
20732;DHT22;10527;52.124;5.196;2023-03-31T07:46:02;11.20;99.90
20732;DHT22;10527;52.124;5.196;2023-03-31T07:48:31;11.30;99.90
20732;DHT22;10527;52.124;5.196;2023-03-31T07:50:59;11.20;99.90
20732;DHT22;10527;52.124;5.196;2023-03-31T07:53:25;11.20;99.90
20732;DHT22;10527;52.124;5.196;2023-03-31T07:55:52;11.20;99.90
20732;DHT22;10527;52.124;5.196;2023-03-31T07:58:19;11.30;99.90
20732;DHT22;10527;52.124;5.196;2023-03-31T08:00:46;11.40;99.90
20732;DHT22;10527;52.124;5.196;2023-03-31T08:03:13;11.30;99.90
20732;DHT22;10527;52.124;5.196;2023-03-31T08:05:40;11.30;99.90
20732;DHT22;10527;52.124;5.196;2023-03-31T08:08:06;11.40;99.90
20732;DHT22;10527;52.124;5.196;2023-03-31T08:10:33;11.40;99.90
20732;DHT22;10527;52.124;5.196;2023-03-31T08:13:00;11.50;99.90
20732;DHT22;10527;52.124;5.196;2023-03-31T08:15:28;11.60;99.90
20732;DHT22;10527;52.124;5.196;2023-03-31T08:17:56;11.60;99.90
20732;DHT22;10527;52.124;5.196;2023-03-31T08:20:23;11.60;99.90
20732;DHT22;10527;52.124;5.196;2023-03-31T08:22:51;11.50;99.90
20732;DHT22;10527;52.124;5.196;2023-03-31T08:25:18;11.50;99.90
20732;DHT22;10527;52.124;5.196;2023-03-31T08:27:46;11.50;99.90
20732;DHT22;10527;52.124;5.196;2023-03-31T08:30:18;11.60;99.90
20732;DHT22;10527;52.124;5.196;2023-03-31T08:32:45;11.60;99.90
20732;DHT22;10527;52.124;5.196;2023-03-31T08:35:12;11.50;99.90
20732;DHT22;10527;52.124;5.196;2023-03-31T08:37:39;11.50;99.90
20732;DHT22;10527;52.124;5.196;2023-03-31T08:40:06;11.50;99.90
20732;DHT22;10527;52.124;5.196;2023-03-31T08:42:47;11.50;99.90
20732;DHT22;10527;52.124;5.196;2023-03-31T08:45:30;11.50;99.90
20732;DHT22;10527;52.124;5.196;2023-03-31T08:50:46;11.60;99.90
20732;DHT22;10527;52.124;5.196;2023-03-31T08:53:25;11.60;99.90
20732;DHT22;10527;52.124;5.196;2023-03-31T08:56:12;11.70;99.90
20732;DHT22;10527;52.124;5.196;2023-03-31T08:58:44;11.70;99.90
20732;DHT22;10527;52.124;5.196;2023-03-31T09:07:24;11.60;99.90
20732;DHT22;10527;52.124;5.196;2023-03-31T09:18:41;11.70;99.90
20732;DHT22;10527;52.124;5.196;2023-03-31T09:21:21;11.70;99.90
20732;DHT22;10527;52.124;5.196;2023-03-31T09:24:06;11.80;99.90
20732;DHT22;10527;52.124;5.196;2023-03-31T09:27:02;12.00;99.90
20732;DHT22;10527;52.124;5.196;2023-03-31T09:29:38;12.10;99.90
20732;DHT22;10527;52.124;5.196;2023-03-31T09:34:51;12.40;99.90
20732;DHT22;10527;52.124;5.196;2023-03-31T09:37:25;12.30;99.90
20732;DHT22;10527;52.124;5.196;2023-03-31T09:40:01;12.40;99.90
20732;DHT22;10527;52.124;5.196;2023-03-31T09:42:34;12.50;99.90
20732;DHT22;10527;52.124;5.196;2023-03-31T09:45:03;12.60;99.90
20732;DHT22;10527;52.124;5.196;2023-03-31T09:47:45;12.60;99.90
20732;DHT22;10527;52.124;5.196;2023-03-31T09:50:15;12.70;99.90
20732;DHT22;10527;52.124;5.196;2023-03-31T09:52:50;12.80;99.90
20732;DHT22;10527;52.124;5.196;2023-03-31T09:55:32;12.80;99.90
20732;DHT22;10527;52.124;5.196;2023-03-31T09:58:14;12.80;99.90
20732;DHT22;10527;52.124;5.196;2023-03-31T10:00:55;12.80;99.90
20732;DHT22;10527;52.124;5.196;2023-03-31T10:03:32;12.90;99.90
20732;DHT22;10527;52.124;5.196;2023-03-31T10:06:09;12.90;99.90
20732;DHT22;10527;52.124;5.196;2023-03-31T10:08:42;12.90;99.90
20732;DHT22;10527;52.124;5.196;2023-03-31T10:11:15;12.90;99.90
20732;DHT22;10527;52.124;5.196;2023-03-31T10:13:47;12.90;99.90
20732;DHT22;10527;52.124;5.196;2023-03-31T10:16:28;12.90;99.90
20732;DHT22;10527;52.124;5.196;2023-03-31T10:19:22;12.90;99.90
20732;DHT22;10527;52.124;5.196;2023-03-31T10:22:13;13.00;99.90
20732;DHT22;10527;52.124;5.196;2023-03-31T10:24:50;13.00;99.90
20732;DHT22;10527;52.124;5.196;2023-03-31T10:27:22;13.00;99.90
20732;DHT22;10527;52.124;5.196;2023-03-31T10:29:59;13.00;99.90
20732;DHT22;10527;52.124;5.196;2023-03-31T10:32:47;13.10;99.90
20732;DHT22;10527;52.124;5.196;2023-03-31T10:35:23;13.20;99.90
20732;DHT22;10527;52.124;5.196;2023-03-31T10:37:56;13.30;99.90
20732;DHT22;10527;52.124;5.196;2023-03-31T10:40:32;13.30;99.90
20732;DHT22;10527;52.124;5.196;2023-03-31T10:46:14;13.20;99.90
20732;DHT22;10527;52.124;5.196;2023-03-31T10:48:42;13.20;99.90
20732;DHT22;10527;52.124;5.196;2023-03-31T10:51:26;13.10;99.90
20732;DHT22;10527;52.124;5.196;2023-03-31T10:54:00;13.20;99.90
20732;DHT22;10527;52.124;5.196;2023-03-31T11:05:38;13.30;99.90
20732;DHT22;10527;52.124;5.196;2023-03-31T11:14:22;12.90;99.90
20732;DHT22;10527;52.124;5.196;2023-03-31T11:16:59;12.90;99.90
20732;DHT22;10527;52.124;5.196;2023-03-31T11:22:53;12.80;99.90
20732;DHT22;10527;52.124;5.196;2023-03-31T11:26:11;12.70;99.90
20732;DHT22;10527;52.124;5.196;2023-03-31T11:31:35;12.70;99.90
20732;DHT22;10527;52.124;5.196;2023-03-31T11:34:47;12.70;99.90
20732;DHT22;10527;52.124;5.196;2023-03-31T11:40:18;12.60;99.90
20732;DHT22;10527;52.124;5.196;2023-03-31T11:43:16;12.60;99.90
20732;DHT22;10527;52.124;5.196;2023-03-31T11:46:07;12.60;99.90
20732;DHT22;10527;52.124;5.196;2023-03-31T11:48:50;12.50;99.90
20732;DHT22;10527;52.124;5.196;2023-03-31T11:51:56;12.50;99.90
20732;DHT22;10527;52.124;5.196;2023-03-31T11:57:36;12.60;99.90
20732;DHT22;10527;52.124;5.196;2023-03-31T12:00:17;12.70;99.90
20732;DHT22;10527;52.124;5.196;2023-03-31T12:03:10;12.70;99.90
20732;DHT22;10527;52.124;5.196;2023-03-31T12:05:47;12.60;99.90
20732;DHT22;10527;52.124;5.196;2023-03-31T12:11:14;12.80;99.90
20732;DHT22;10527;52.124;5.196;2023-03-31T12:17:19;12.70;99.90
20732;DHT22;10527;52.124;5.196;2023-03-31T12:19:59;12.80;99.90
20732;DHT22;10527;52.124;5.196;2023-03-31T12:22:43;12.80;99.90
20732;DHT22;10527;52.124;5.196;2023-03-31T12:25:19;12.90;99.90
20732;DHT22;10527;52.124;5.196;2023-03-31T12:27:53;12.90;99.90
20732;DHT22;10527;52.124;5.196;2023-03-31T12:30:33;12.80;99.90
20732;DHT22;10527;52.124;5.196;2023-03-31T12:33:13;12.90;99.90
20732;DHT22;10527;52.124;5.196;2023-03-31T12:36:06;12.90;99.90
20732;DHT22;10527;52.124;5.196;2023-03-31T12:47:39;12.90;99.90
20732;DHT22;10527;52.124;5.196;2023-03-31T12:51:04;12.90;99.90
20732;DHT22;10527;52.124;5.196;2023-03-31T12:54:49;12.80;99.90
20732;DHT22;10527;52.124;5.196;2023-03-31T12:57:31;12.90;99.90
20732;DHT22;10527;52.124;5.196;2023-03-31T13:02:39;12.90;99.90
20732;DHT22;10527;52.124;5.196;2023-03-31T13:17:11;12.80;99.90
20732;DHT22;10527;52.124;5.196;2023-03-31T13:19:39;12.90;99.90
20732;DHT22;10527;52.124;5.196;2023-03-31T13:22:31;12.80;99.90
20732;DHT22;10527;52.124;5.196;2023-03-31T13:25:36;12.70;99.90
20732;DHT22;10527;52.124;5.196;2023-03-31T13:28:13;12.70;99.90
20732;DHT22;10527;52.124;5.196;2023-03-31T13:30:45;12.60;99.90
20732;DHT22;10527;52.124;5.196;2023-03-31T13:33:26;12.50;99.90
20732;DHT22;10527;52.124;5.196;2023-03-31T13:50:36;12.50;99.90
20732;DHT22;10527;52.124;5.196;2023-03-31T13:56:14;12.60;99.90
20732;DHT22;10527;52.124;5.196;2023-03-31T13:59:30;12.60;99.90
20732;DHT22;10527;52.124;5.196;2023-03-31T14:05:38;12.70;99.90
20732;DHT22;10527;52.124;5.196;2023-03-31T14:11:26;12.70;99.90
20732;DHT22;10527;52.124;5.196;2023-03-31T14:14:03;12.60;99.90
20732;DHT22;10527;52.124;5.196;2023-03-31T14:16:38;12.60;99.90
20732;DHT22;10527;52.124;5.196;2023-03-31T14:19:45;12.50;99.90
20732;DHT22;10527;52.124;5.196;2023-03-31T14:22:52;12.50;99.90
20732;DHT22;10527;52.124;5.196;2023-03-31T14:25:39;12.40;99.90
20732;DHT22;10527;52.124;5.196;2023-03-31T14:28:53;12.50;99.90
20732;DHT22;10527;52.124;5.196;2023-03-31T14:31:43;12.50;99.90
20732;DHT22;10527;52.124;5.196;2023-03-31T14:34:41;12.60;99.90
20732;DHT22;10527;52.124;5.196;2023-03-31T14:37:31;12.60;99.90
20732;DHT22;10527;52.124;5.196;2023-03-31T14:40:01;12.60;99.90
20732;DHT22;10527;52.124;5.196;2023-03-31T14:42:35;12.50;99.90
20732;DHT22;10527;52.124;5.196;2023-03-31T14:45:29;12.40;99.90
20732;DHT22;10527;52.124;5.196;2023-03-31T14:48:11;12.40;99.90
20732;DHT22;10527;52.124;5.196;2023-03-31T14:50:45;12.40;99.90
20732;DHT22;10527;52.124;5.196;2023-03-31T14:53:23;12.40;99.90
20732;DHT22;10527;52.124;5.196;2023-03-31T14:56:03;12.40;99.90
20732;DHT22;10527;52.124;5.196;2023-03-31T14:58:46;12.40;99.90
20732;DHT22;10527;52.124;5.196;2023-03-31T15:01:18;12.40;99.90
20732;DHT22;10527;52.124;5.196;2023-03-31T15:03:50;12.30;99.90
20732;DHT22;10527;52.124;5.196;2023-03-31T15:06:19;12.30;99.90
20732;DHT22;10527;52.124;5.196;2023-03-31T15:08:50;12.30;99.90
20732;DHT22;10527;52.124;5.196;2023-03-31T15:11:21;12.30;99.90
20732;DHT22;10527;52.124;5.196;2023-03-31T15:13:51;12.30;99.90
20732;DHT22;10527;52.124;5.196;2023-03-31T15:16:41;12.30;99.90
20732;DHT22;10527;52.124;5.196;2023-03-31T15:19:13;12.30;99.90
20732;DHT22;10527;52.124;5.196;2023-03-31T15:21:43;12.30;99.90
20732;DHT22;10527;52.124;5.196;2023-03-31T15:24:20;12.30;99.90
20732;DHT22;10527;52.124;5.196;2023-03-31T15:26:56;12.40;99.90
20732;DHT22;10527;52.124;5.196;2023-03-31T15:32:45;12.40;99.90
20732;DHT22;10527;52.124;5.196;2023-03-31T15:35:34;12.20;99.90
20732;DHT22;10527;52.124;5.196;2023-03-31T15:38:04;12.20;99.90
20732;DHT22;10527;52.124;5.196;2023-03-31T15:40:37;12.10;99.90
20732;DHT22;10527;52.124;5.196;2023-03-31T15:49:10;12.20;99.90
20732;DHT22;10527;52.124;5.196;2023-03-31T15:51:47;12.10;99.90
20732;DHT22;10527;52.124;5.196;2023-03-31T15:57:00;12.10;99.90
20732;DHT22;10527;52.124;5.196;2023-03-31T15:59:30;12.10;99.90
20732;DHT22;10527;52.124;5.196;2023-03-31T16:02:41;12.10;99.90
20732;DHT22;10527;52.124;5.196;2023-03-31T16:05:35;12.00;99.90
20732;DHT22;10527;52.124;5.196;2023-03-31T16:08:26;11.90;99.90
20732;DHT22;10527;52.124;5.196;2023-03-31T16:11:25;11.80;99.90
20732;DHT22;10527;52.124;5.196;2023-03-31T16:14:13;11.80;99.90
20732;DHT22;10527;52.124;5.196;2023-03-31T16:16:59;11.70;99.90
20732;DHT22;10527;52.124;5.196;2023-03-31T16:19:58;11.70;99.90
20732;DHT22;10527;52.124;5.196;2023-03-31T16:22:44;11.70;99.90
20732;DHT22;10527;52.124;5.196;2023-03-31T16:25:17;11.70;99.90
20732;DHT22;10527;52.124;5.196;2023-03-31T16:27:57;11.70;99.90
20732;DHT22;10527;52.124;5.196;2023-03-31T16:30:38;11.60;99.90
20732;DHT22;10527;52.124;5.196;2023-03-31T16:33:09;11.70;99.90
20732;DHT22;10527;52.124;5.196;2023-03-31T16:35:42;11.70;99.90
20732;DHT22;10527;52.124;5.196;2023-03-31T16:38:19;11.80;99.90
20732;DHT22;10527;52.124;5.196;2023-03-31T16:40:52;11.80;99.90
20732;DHT22;10527;52.124;5.196;2023-03-31T16:43:23;11.70;99.90
20732;DHT22;10527;52.124;5.196;2023-03-31T16:46:00;11.70;99.90
20732;DHT22;10527;52.124;5.196;2023-03-31T16:48:30;11.80;99.90
20732;DHT22;10527;52.124;5.196;2023-03-31T16:51:01;11.90;99.90
20732;DHT22;10527;52.124;5.196;2023-03-31T16:53:30;11.70;99.90
20732;DHT22;10527;52.124;5.196;2023-03-31T16:56:03;11.70;99.90
20732;DHT22;10527;52.124;5.196;2023-03-31T16:58:35;11.50;99.90
20732;DHT22;10527;52.124;5.196;2023-03-31T17:01:04;11.60;99.90
20732;DHT22;10527;52.124;5.196;2023-03-31T17:03:33;11.60;99.90
20732;DHT22;10527;52.124;5.196;2023-03-31T17:06:10;11.60;99.90
20732;DHT22;10527;52.124;5.196;2023-03-31T17:08:38;11.60;99.90
20732;DHT22;10527;52.124;5.196;2023-03-31T17:11:10;11.50;99.90
20732;DHT22;10527;52.124;5.196;2023-03-31T17:13:41;11.60;99.90
20732;DHT22;10527;52.124;5.196;2023-03-31T17:16:10;11.60;99.90
20732;DHT22;10527;52.124;5.196;2023-03-31T17:18:41;11.50;99.90
20732;DHT22;10527;52.124;5.196;2023-03-31T17:21:09;11.50;99.90
20732;DHT22;10527;52.124;5.196;2023-03-31T17:23:41;11.60;99.90
20732;DHT22;10527;52.124;5.196;2023-03-31T17:26:09;11.60;99.90
20732;DHT22;10527;52.124;5.196;2023-03-31T17:28:38;11.60;99.90
20732;DHT22;10527;52.124;5.196;2023-03-31T17:31:11;11.60;99.90
20732;DHT22;10527;52.124;5.196;2023-03-31T17:33:42;11.60;99.90
20732;DHT22;10527;52.124;5.196;2023-03-31T17:36:11;11.50;99.90
20732;DHT22;10527;52.124;5.196;2023-03-31T17:38:38;11.50;99.90
20732;DHT22;10527;52.124;5.196;2023-03-31T17:41:07;11.50;99.90
20732;DHT22;10527;52.124;5.196;2023-03-31T17:43:36;11.50;99.90
20732;DHT22;10527;52.124;5.196;2023-03-31T17:46:06;11.50;99.90
20732;DHT22;10527;52.124;5.196;2023-03-31T17:48:39;11.40;99.90
20732;DHT22;10527;52.124;5.196;2023-03-31T17:51:09;11.50;99.90
20732;DHT22;10527;52.124;5.196;2023-03-31T17:53:41;11.50;99.90
20732;DHT22;10527;52.124;5.196;2023-03-31T17:56:11;11.50;99.90
20732;DHT22;10527;52.124;5.196;2023-03-31T17:58:38;11.40;99.90
20732;DHT22;10527;52.124;5.196;2023-03-31T18:01:09;11.40;99.90
20732;DHT22;10527;52.124;5.196;2023-03-31T18:03:37;11.40;99.90
20732;DHT22;10527;52.124;5.196;2023-03-31T18:06:08;11.40;99.90
20732;DHT22;10527;52.124;5.196;2023-03-31T18:08:38;11.40;99.90
20732;DHT22;10527;52.124;5.196;2023-03-31T18:11:06;11.40;99.90
20732;DHT22;10527;52.124;5.196;2023-03-31T18:13:35;11.40;99.90
20732;DHT22;10527;52.124;5.196;2023-03-31T18:16:03;11.40;99.90
20732;DHT22;10527;52.124;5.196;2023-03-31T18:18:31;11.50;99.90
20732;DHT22;10527;52.124;5.196;2023-03-31T18:21:03;11.40;99.90
20732;DHT22;10527;52.124;5.196;2023-03-31T18:23:31;11.40;99.90
20732;DHT22;10527;52.124;5.196;2023-03-31T18:25:59;11.50;99.90
20732;DHT22;10527;52.124;5.196;2023-03-31T18:28:27;11.40;99.90
20732;DHT22;10527;52.124;5.196;2023-03-31T18:30:54;11.40;99.90
20732;DHT22;10527;52.124;5.196;2023-03-31T18:33:21;11.40;99.90
20732;DHT22;10527;52.124;5.196;2023-03-31T18:35:49;11.40;99.90
20732;DHT22;10527;52.124;5.196;2023-03-31T18:38:16;11.40;99.90
20732;DHT22;10527;52.124;5.196;2023-03-31T18:40:50;11.40;99.90
20732;DHT22;10527;52.124;5.196;2023-03-31T18:43:19;11.40;99.90
20732;DHT22;10527;52.124;5.196;2023-03-31T18:45:51;11.30;99.90
20732;DHT22;10527;52.124;5.196;2023-03-31T18:48:20;11.30;99.90
20732;DHT22;10527;52.124;5.196;2023-03-31T18:50:48;11.30;99.90
20732;DHT22;10527;52.124;5.196;2023-03-31T18:53:21;11.30;99.90
20732;DHT22;10527;52.124;5.196;2023-03-31T18:55:50;11.30;99.90
20732;DHT22;10527;52.124;5.196;2023-03-31T18:58:18;11.30;99.90
20732;DHT22;10527;52.124;5.196;2023-03-31T19:00:48;11.30;99.90